Address 0xad33802231d755c5924e6c0de0e7f37dbbe1a475 12

 
 
Txn Hash Method
Block
From
To
Value [Txn Fee]
0x99265ff51d9d0e104ef521ec85682a65c3214d417dd056b780956fd2a899124fTransfer146491982022-01-24 16:03:014 days 10 hrs ago0xad33802231d755c5924e6c0de0e7f37dbbe1a475OUT0x00000040b83c931df9b6ce8aaf7b7bd78ce3a3d10.01 BNB0.000105
0x87223afb46c86db4118099331cf1c09e68bff3fb6d959fd330c3c0b01291e3320xcabb9212146480552022-01-24 15:05:374 days 11 hrs ago0xad33802231d755c5924e6c0de0e7f37dbbe1a475OUT 0x97e402be9c672ccfa73d91b5f853e3d45a1634a00 BNB0.00064972
0x4af1dcb6e5e8eb7196454dfba371ec8b5a5da8f42a1392126adf610a8e626103Transfer146479142022-01-24 14:58:344 days 11 hrs ago0xad33802231d755c5924e6c0de0e7f37dbbe1a475OUT Binance: WBNB Token0 BNB0.00018397
0xdf5ce734f74c740907977f6d8c5fd0b0e044b7b75f758a178ba4411a8695919eDeposit146478962022-01-24 14:57:404 days 11 hrs ago0xad33802231d755c5924e6c0de0e7f37dbbe1a475OUT Binance: WBNB Token3 BNB0.00021869
0x3913e3886c375d92bcb396c2b49b7a1aa28676725231e06d29eb43b94b84648bTransfer146470862022-01-24 14:17:094 days 12 hrs agoBinance: Hot Wallet 18 IN 0xad33802231d755c5924e6c0de0e7f37dbbe1a4753 BNB0.00021
0xa32eb3759bf8d2d98075d634e363399ba840dc312c0369b975f943fa4021b7f0Transfer Tokens146467782022-01-24 14:01:454 days 12 hrs ago0xad33802231d755c5924e6c0de0e7f37dbbe1a475OUT Wormhole: Token Bridge0 BNB0.000459395
0x8845b8cd8214e9d8fc0a9bafef2334f1110eff834d80908ab3fe2a9a9191719fApprove146467642022-01-24 14:01:034 days 12 hrs ago0xad33802231d755c5924e6c0de0e7f37dbbe1a475OUT 0x6c6d604d3f07abe287c1a3df0281e999a83495c00 BNB0.000252075
0xe5d4520581af8d10b904e7c78300261a90d4f072274d9b35e7f1619d1260fa38Complete Transfe...146467262022-01-24 13:59:094 days 12 hrs ago0xad33802231d755c5924e6c0de0e7f37dbbe1a475OUT Wormhole: Token Bridge0 BNB0.001200045
0x6918cac5b54bc030b1d3cc3e1a852d295fb8f2796241a6260474e3d6da5dad3dTransfer146463232022-01-24 13:38:554 days 12 hrs ago0xad33802231d755c5924e6c0de0e7f37dbbe1a475OUT0x8d570805639c41314fbc45c2146a07e9943bd89f1 BNB0.000105
0x0e41f11c576c31549f3784fc42d70b1d5faed0dbf27bf411dedd0000a0a3675dWithdraw146463122022-01-24 13:38:224 days 12 hrs ago0xad33802231d755c5924e6c0de0e7f37dbbe1a475OUT Binance: WBNB Token0 BNB0.00011152
0xd6e831da73a24714ba89de9b7df14ed9ed9fe87359c9a0850518ed968faac1f80xa1ee5fbb146460242022-01-24 13:23:584 days 13 hrs ago0xad33802231d755c5924e6c0de0e7f37dbbe1a475OUT 0x97e402be9c672ccfa73d91b5f853e3d45a1634a00 BNB0.00013834
0x311fa73c14f6a64266ca2f69356cfd024c7b591075d8f4462a6a1ca9f3fc50efTransfer146460082022-01-24 13:23:104 days 13 hrs ago0xad33802231d755c5924e6c0de0e7f37dbbe1a475OUT Binance: WBNB Token0 BNB0.00025891
0x18a0e80c3b0a5a919cf835d833b67d61f186177f5fb41df7e23e5b2e8fff3423Deposit146459672022-01-24 13:21:074 days 13 hrs ago0xad33802231d755c5924e6c0de0e7f37dbbe1a475OUT Binance: WBNB Token1 BNB0.00021869
0xd301e8d27220fec6d408a64d43b3e2afb485f7cc651e93ff74a44449d9a852050x60806040146459412022-01-24 13:19:494 days 13 hrs ago0xad33802231d755c5924e6c0de0e7f37dbbe1a475OUT Contract Creation0 BNB0.00976099
0xace7e10bf878407584b7a8589056f7102a0fbf30c6a003f5f643d3268dea037eTransfer146187992022-01-23 14:40:485 days 11 hrs agoBinance: Hot Wallet 13 IN 0xad33802231d755c5924e6c0de0e7f37dbbe1a4751.12260253 BNB0.00021
0x9c330d4382e2e906fb40b0d5f4704f1654a1ed920cba3e9f6083950073994c930x60806040146180772022-01-23 14:04:145 days 12 hrs ago0xad33802231d755c5924e6c0de0e7f37dbbe1a475OUT Contract Creation0 BNB0.01424656
0x1464bba04b30b0e4e6c7fe233910ace18ded9a9df157369030016029f096cd98Transfer And Cal...140863512022-01-05 1:25:5624 days 1 hr ago0xad33802231d755c5924e6c0de0e7f37dbbe1a475OUT Fuse: FUSE Token0 BNB0.000622465
0x021fbed0f9d5b34dc8f243e848f7033f4168548c46c46f97cdd6d3f8b53a3ca80x7c025200140863402022-01-05 1:25:2324 days 1 hr ago0xad33802231d755c5924e6c0de0e7f37dbbe1a475OUT 1inch v4: Router 0 BNB0.001653888
0x92d30d753e8156ed6a0396f55b168521bf53c38ed36cd0a3783a0dbf90bb9e2b0x7c025200140863322022-01-05 1:24:5924 days 1 hr ago0xad33802231d755c5924e6c0de0e7f37dbbe1a475OUT 1inch v4: Router 0 BNB0.00177135
0xee0844b49cdfb0a665dc6e1d1d3d1defd89797e032c484941a2ea80f9f300479Transfer And Cal...140858462022-01-05 1:00:4124 days 1 hr ago0xad33802231d755c5924e6c0de0e7f37dbbe1a475OUT Fuse: FUSE Token0 BNB0.000622465
0x909d4f0226d2b1ab6899fad4877609a5451b3a5d2df60e0b38f3c89726d4e12d0x7c025200140858372022-01-05 1:00:1424 days 1 hr ago0xad33802231d755c5924e6c0de0e7f37dbbe1a475OUT 1inch v4: Router 0.06 BNB0.001363566
0x5d145f06cb6634b678fea87823ffb7a9421777d2df2afcccf8c9e505d38e25580x7c025200140858222022-01-05 0:59:2924 days 1 hr ago0xad33802231d755c5924e6c0de0e7f37dbbe1a475OUT 1inch v4: Router 0 BNB0.001439538
0xfb349350464849233cf4cad4f0edf33c6210841d5008b61af43b6f98fc7b8abdApprove140858152022-01-05 0:59:0824 days 1 hr ago0xad33802231d755c5924e6c0de0e7f37dbbe1a475OUT BUSD-T Stablecoin0 BNB0.000266436
0xdd1e320e22a460242db581c0a3c3200a0ff73f8bb13ef5263c1f6d4636e5ac92Approve140857192022-01-05 0:54:2024 days 1 hr ago0xad33802231d755c5924e6c0de0e7f37dbbe1a475OUT Fuse: FUSE Token0 BNB0.000221765
0x3bb35c4fbf6bed6e40d749214fb191aac6cbdf0113b2fb0c1a3878cf0fe96ce0Any Swap Out Und...131880152021-12-04 13:04:5455 days 13 hrs ago0xad33802231d755c5924e6c0de0e7f37dbbe1a475OUT 0xd1c5966f9f5ee6881ff6b261bbeda45972b1b5f30 BNB0.0002830959
[ Download CSV Export 
Latest 3 internal transactions
Parent Txn Hash Block From To Value
0x0e41f11c576c31549f3784fc42d70b1d5faed0dbf27bf411dedd0000a0a3675d146463122022-01-24 13:38:224 days 12 hrs ago Binance: WBNB Token0xad33802231d755c5924e6c0de0e7f37dbbe1a4751 BNB
0x5d145f06cb6634b678fea87823ffb7a9421777d2df2afcccf8c9e505d38e2558140858222022-01-05 0:59:2924 days 1 hr ago 1inch v4: Router 0xad33802231d755c5924e6c0de0e7f37dbbe1a4750.098755337916363833 BNB
0x85bace821d74a09f668c3cf7ed7897d31aadb688fc12caaf92a261634357bff099952002021-08-13 14:04:36168 days 12 hrs ago PancakeSwap: Router v20xad33802231d755c5924e6c0de0e7f37dbbe1a4750.037264177541172975 BNB
[ Download CSV Export 
Loading

Contract Name:
0 BNB

Compiler Version
0

Optimization Enabled:
0 BNB

Other Settings:
-NA-
Block Transaction Gas Used Reward
Age Block Fee Address BC Fee Address Voting Power Jailed Incoming
Block Uncle Number Difficulty Gas Used Reward
Loading
Loading
Make sure to use the "Vote Down" button for any spammy posts, and the "Vote Up" for interesting conversations.